sensor_id;sensor_type;location;lat;lon;timestamp;P1;durP1;ratioP1;P2;durP2;ratioP2
76107;SDS011;64834;52.516;10.528;2023-08-06T00:00:04;2.97;;;2.15;;
76107;SDS011;64834;52.516;10.528;2023-08-06T00:02:30;3.25;;;2.22;;
76107;SDS011;64834;52.516;10.528;2023-08-06T00:04:55;3.70;;;2.10;;
76107;SDS011;64834;52.516;10.528;2023-08-06T00:07:20;3.33;;;2.22;;
76107;SDS011;64834;52.516;10.528;2023-08-06T00:09:46;3.67;;;2.40;;
76107;SDS011;64834;52.516;10.528;2023-08-06T00:12:11;4.00;;;2.63;;
76107;SDS011;64834;52.516;10.528;2023-08-06T00:14:36;5.45;;;2.80;;
76107;SDS011;64834;52.516;10.528;2023-08-06T00:17:02;4.50;;;2.75;;
76107;SDS011;64834;52.516;10.528;2023-08-06T00:19:27;3.15;;;2.25;;
76107;SDS011;64834;52.516;10.528;2023-08-06T00:21:53;5.85;;;2.40;;
76107;SDS011;64834;52.516;10.528;2023-08-06T00:24:18;3.72;;;2.50;;
76107;SDS011;64834;52.516;10.528;2023-08-06T00:26:43;3.58;;;2.50;;
76107;SDS011;64834;52.516;10.528;2023-08-06T00:29:09;3.80;;;2.67;;
76107;SDS011;64834;52.516;10.528;2023-08-06T00:31:34;4.63;;;2.70;;
76107;SDS011;64834;52.516;10.528;2023-08-06T00:33:59;3.83;;;2.70;;
76107;SDS011;64834;52.516;10.528;2023-08-06T00:36:25;4.30;;;2.88;;
76107;SDS011;64834;52.516;10.528;2023-08-06T00:38:50;4.13;;;2.97;;
76107;SDS011;64834;52.516;10.528;2023-08-06T00:41:15;4.55;;;2.70;;
76107;SDS011;64834;52.516;10.528;2023-08-06T00:43:41;4.30;;;2.63;;
76107;SDS011;64834;52.516;10.528;2023-08-06T00:46:06;4.80;;;3.25;;
76107;SDS011;64834;52.516;10.528;2023-08-06T00:48:31;4.30;;;2.88;;
76107;SDS011;64834;52.516;10.528;2023-08-06T00:50:57;3.85;;;3.00;;
76107;SDS011;64834;52.516;10.528;2023-08-06T00:53:25;5.68;;;3.15;;
76107;SDS011;64834;52.516;10.528;2023-08-06T00:55:50;4.00;;;2.85;;
76107;SDS011;64834;52.516;10.528;2023-08-06T00:58:16;5.70;;;3.17;;
76107;SDS011;64834;52.516;10.528;2023-08-06T01:00:41;3.75;;;2.95;;
76107;SDS011;64834;52.516;10.528;2023-08-06T01:03:07;4.32;;;3.03;;
76107;SDS011;64834;52.516;10.528;2023-08-06T01:05:32;6.03;;;3.53;;
76107;SDS011;64834;52.516;10.528;2023-08-06T01:15:49;5.35;;;2.90;;
76107;SDS011;64834;52.516;10.528;2023-08-06T01:18:19;4.47;;;3.45;;
76107;SDS011;64834;52.516;10.528;2023-08-06T01:20:44;3.67;;;2.67;;
76107;SDS011;64834;52.516;10.528;2023-08-06T01:23:10;5.15;;;3.58;;
76107;SDS011;64834;52.516;10.528;2023-08-06T01:25:49;5.00;;;3.55;;
76107;SDS011;64834;52.516;10.528;2023-08-06T01:28:33;6.35;;;3.45;;
76107;SDS011;64834;52.516;10.528;2023-08-06T01:31:07;4.30;;;3.10;;
76107;SDS011;64834;52.516;10.528;2023-08-06T01:33:35;5.03;;;3.35;;
76107;SDS011;64834;52.516;10.528;2023-08-06T01:36:05;4.95;;;3.25;;
76107;SDS011;64834;52.516;10.528;2023-08-06T01:38:31;5.90;;;3.90;;
76107;SDS011;64834;52.516;10.528;2023-08-06T01:40:57;4.57;;;3.60;;
76107;SDS011;64834;52.516;10.528;2023-08-06T01:43:22;5.43;;;3.58;;
76107;SDS011;64834;52.516;10.528;2023-08-06T01:45:47;4.47;;;3.08;;
76107;SDS011;64834;52.516;10.528;2023-08-06T01:48:13;4.15;;;3.25;;
76107;SDS011;64834;52.516;10.528;2023-08-06T01:50:38;3.83;;;2.95;;
76107;SDS011;64834;52.516;10.528;2023-08-06T01:53:03;4.82;;;3.25;;
76107;SDS011;64834;52.516;10.528;2023-08-06T01:55:29;4.53;;;2.88;;
76107;SDS011;64834;52.516;10.528;2023-08-06T01:57:55;4.68;;;2.83;;
76107;SDS011;64834;52.516;10.528;2023-08-06T02:00:20;4.03;;;2.67;;
76107;SDS011;64834;52.516;10.528;2023-08-06T02:02:46;3.55;;;2.60;;
76107;SDS011;64834;52.516;10.528;2023-08-06T02:05:11;3.67;;;2.42;;
76107;SDS011;64834;52.516;10.528;2023-08-06T02:07:36;4.28;;;2.70;;
76107;SDS011;64834;52.516;10.528;2023-08-06T02:10:02;3.10;;;2.53;;
76107;SDS011;64834;52.516;10.528;2023-08-06T02:12:27;3.90;;;2.63;;
76107;SDS011;64834;52.516;10.528;2023-08-06T02:14:52;5.35;;;2.65;;
76107;SDS011;64834;52.516;10.528;2023-08-06T02:17:18;3.85;;;2.53;;
76107;SDS011;64834;52.516;10.528;2023-08-06T02:19:43;3.70;;;2.35;;
76107;SDS011;64834;52.516;10.528;2023-08-06T02:22:08;3.45;;;2.72;;
76107;SDS011;64834;52.516;10.528;2023-08-06T02:24:34;3.58;;;2.60;;
76107;SDS011;64834;52.516;10.528;2023-08-06T02:26:59;3.30;;;2.83;;
76107;SDS011;64834;52.516;10.528;2023-08-06T02:29:24;3.33;;;2.60;;
76107;SDS011;64834;52.516;10.528;2023-08-06T02:31:50;4.10;;;3.05;;
76107;SDS011;64834;52.516;10.528;2023-08-06T02:34:15;3.88;;;2.60;;
76107;SDS011;64834;52.516;10.528;2023-08-06T02:36:40;4.63;;;2.83;;
76107;SDS011;64834;52.516;10.528;2023-08-06T02:39:06;4.78;;;2.97;;
76107;SDS011;64834;52.516;10.528;2023-08-06T02:41:31;5.72;;;2.90;;
76107;SDS011;64834;52.516;10.528;2023-08-06T02:43:57;4.43;;;2.83;;
76107;SDS011;64834;52.516;10.528;2023-08-06T02:46:22;4.65;;;2.90;;
76107;SDS011;64834;52.516;10.528;2023-08-06T02:48:47;4.20;;;2.95;;
76107;SDS011;64834;52.516;10.528;2023-08-06T02:51:13;4.53;;;3.20;;
76107;SDS011;64834;52.516;10.528;2023-08-06T02:53:38;6.45;;;3.72;;
76107;SDS011;64834;52.516;10.528;2023-08-06T02:56:04;6.30;;;3.47;;
76107;SDS011;64834;52.516;10.528;2023-08-06T02:58:29;5.18;;;3.70;;
76107;SDS011;64834;52.516;10.528;2023-08-06T03:01:04;4.45;;;3.10;;
76107;SDS011;64834;52.516;10.528;2023-08-06T03:03:31;4.95;;;3.50;;
76107;SDS011;64834;52.516;10.528;2023-08-06T03:05:57;6.53;;;3.95;;
76107;SDS011;64834;52.516;10.528;2023-08-06T03:08:22;6.35;;;3.78;;
76107;SDS011;64834;52.516;10.528;2023-08-06T03:10:48;6.05;;;4.07;;
76107;SDS011;64834;52.516;10.528;2023-08-06T03:13:14;5.47;;;3.47;;
76107;SDS011;64834;52.516;10.528;2023-08-06T03:15:41;4.80;;;3.67;;
76107;SDS011;64834;52.516;10.528;2023-08-06T03:18:06;5.05;;;3.70;;
76107;SDS011;64834;52.516;10.528;2023-08-06T03:20:32;6.28;;;3.72;;
76107;SDS011;64834;52.516;10.528;2023-08-06T03:22:57;5.90;;;3.65;;
76107;SDS011;64834;52.516;10.528;2023-08-06T03:25:22;5.07;;;3.65;;
76107;SDS011;64834;52.516;10.528;2023-08-06T03:27:48;5.50;;;3.35;;
76107;SDS011;64834;52.516;10.528;2023-08-06T03:30:13;5.63;;;3.75;;
76107;SDS011;64834;52.516;10.528;2023-08-06T03:32:38;5.85;;;3.53;;
76107;SDS011;64834;52.516;10.528;2023-08-06T03:35:04;5.75;;;3.70;;
76107;SDS011;64834;52.516;10.528;2023-08-06T03:37:30;5.43;;;3.03;;
76107;SDS011;64834;52.516;10.528;2023-08-06T03:39:55;5.07;;;3.50;;
76107;SDS011;64834;52.516;10.528;2023-08-06T03:42:20;4.85;;;3.20;;
76107;SDS011;64834;52.516;10.528;2023-08-06T03:44:46;5.18;;;3.95;;
76107;SDS011;64834;52.516;10.528;2023-08-06T03:47:12;5.78;;;3.55;;
76107;SDS011;64834;52.516;10.528;2023-08-06T03:49:37;6.63;;;3.60;;
76107;SDS011;64834;52.516;10.528;2023-08-06T03:52:03;5.65;;;3.63;;
76107;SDS011;64834;52.516;10.528;2023-08-06T03:54:28;5.25;;;3.22;;
76107;SDS011;64834;52.516;10.528;2023-08-06T03:56:55;6.80;;;4.30;;
76107;SDS011;64834;52.516;10.528;2023-08-06T03:59:20;5.50;;;3.47;;
76107;SDS011;64834;52.516;10.528;2023-08-06T04:01:45;4.65;;;3.60;;
76107;SDS011;64834;52.516;10.528;2023-08-06T04:04:11;5.25;;;3.42;;
76107;SDS011;64834;52.516;10.528;2023-08-06T04:06:36;4.80;;;3.33;;
76107;SDS011;64834;52.516;10.528;2023-08-06T04:09:01;4.60;;;3.38;;
76107;SDS011;64834;52.516;10.528;2023-08-06T04:11:27;3.90;;;3.00;;
76107;SDS011;64834;52.516;10.528;2023-08-06T04:13:52;6.45;;;3.72;;
76107;SDS011;64834;52.516;10.528;2023-08-06T04:16:19;5.68;;;4.18;;
76107;SDS011;64834;52.516;10.528;2023-08-06T04:18:44;5.88;;;4.00;;
76107;SDS011;64834;52.516;10.528;2023-08-06T04:21:10;5.35;;;3.95;;
76107;SDS011;64834;52.516;10.528;2023-08-06T04:23:36;6.47;;;3.85;;
76107;SDS011;64834;52.516;10.528;2023-08-06T04:26:01;5.47;;;3.75;;
76107;SDS011;64834;52.516;10.528;2023-08-06T04:28:26;4.85;;;3.67;;
76107;SDS011;64834;52.516;10.528;2023-08-06T04:30:52;6.15;;;4.47;;
76107;SDS011;64834;52.516;10.528;2023-08-06T04:33:18;5.20;;;3.70;;
76107;SDS011;64834;52.516;10.528;2023-08-06T04:35:44;4.55;;;3.53;;
76107;SDS011;64834;52.516;10.528;2023-08-06T04:38:09;6.05;;;3.50;;
76107;SDS011;64834;52.516;10.528;2023-08-06T04:40:35;5.72;;;3.60;;
76107;SDS011;64834;52.516;10.528;2023-08-06T04:43:01;6.13;;;3.58;;
76107;SDS011;64834;52.516;10.528;2023-08-06T04:45:27;6.85;;;4.32;;
76107;SDS011;64834;52.516;10.528;2023-08-06T04:47:52;8.35;;;4.65;;
76107;SDS011;64834;52.516;10.528;2023-08-06T04:50:18;7.82;;;5.35;;
76107;SDS011;64834;52.516;10.528;2023-08-06T04:52:44;7.78;;;4.70;;
76107;SDS011;64834;52.516;10.528;2023-08-06T04:55:09;8.43;;;4.80;;
76107;SDS011;64834;52.516;10.528;2023-08-06T04:57:35;7.53;;;4.53;;
76107;SDS011;64834;52.516;10.528;2023-08-06T05:00:00;6.65;;;4.32;;
76107;SDS011;64834;52.516;10.528;2023-08-06T05:02:25;7.93;;;4.32;;
76107;SDS011;64834;52.516;10.528;2023-08-06T05:04:51;8.75;;;5.05;;
76107;SDS011;64834;52.516;10.528;2023-08-06T05:07:16;7.85;;;4.95;;
76107;SDS011;64834;52.516;10.528;2023-08-06T05:09:41;8.98;;;5.40;;
76107;SDS011;64834;52.516;10.528;2023-08-06T05:12:07;8.05;;;5.38;;
76107;SDS011;64834;52.516;10.528;2023-08-06T05:14:32;8.07;;;4.93;;
76107;SDS011;64834;52.516;10.528;2023-08-06T05:16:57;9.52;;;5.22;;
76107;SDS011;64834;52.516;10.528;2023-08-06T05:19:23;7.95;;;4.70;;
76107;SDS011;64834;52.516;10.528;2023-08-06T05:21:48;7.93;;;4.90;;
76107;SDS011;64834;52.516;10.528;2023-08-06T05:24:13;6.85;;;4.70;;
76107;SDS011;64834;52.516;10.528;2023-08-06T05:26:39;7.50;;;4.78;;
76107;SDS011;64834;52.516;10.528;2023-08-06T05:29:04;9.77;;;4.93;;
76107;SDS011;64834;52.516;10.528;2023-08-06T05:31:29;6.00;;;4.35;;
76107;SDS011;64834;52.516;10.528;2023-08-06T05:33:55;7.93;;;5.28;;
76107;SDS011;64834;52.516;10.528;2023-08-06T05:36:20;6.90;;;4.95;;
76107;SDS011;64834;52.516;10.528;2023-08-06T05:38:46;8.25;;;4.93;;
76107;SDS011;64834;52.516;10.528;2023-08-06T05:41:11;7.97;;;5.65;;
76107;SDS011;64834;52.516;10.528;2023-08-06T05:43:37;9.70;;;5.53;;
76107;SDS011;64834;52.516;10.528;2023-08-06T05:46:04;9.02;;;5.57;;
76107;SDS011;64834;52.516;10.528;2023-08-06T05:48:30;9.93;;;5.45;;
76107;SDS011;64834;52.516;10.528;2023-08-06T05:50:56;8.77;;;5.07;;
76107;SDS011;64834;52.516;10.528;2023-08-06T05:53:22;7.68;;;5.55;;
76107;SDS011;64834;52.516;10.528;2023-08-06T05:55:47;8.05;;;5.28;;
76107;SDS011;64834;52.516;10.528;2023-08-06T05:58:12;6.35;;;4.50;;
76107;SDS011;64834;52.516;10.528;2023-08-06T06:00:38;7.40;;;5.38;;
76107;SDS011;64834;52.516;10.528;2023-08-06T06:03:03;6.68;;;4.53;;
76107;SDS011;64834;52.516;10.528;2023-08-06T06:05:28;6.43;;;4.35;;
76107;SDS011;64834;52.516;10.528;2023-08-06T06:07:54;7.30;;;4.95;;
76107;SDS011;64834;52.516;10.528;2023-08-06T06:10:19;7.43;;;4.97;;
76107;SDS011;64834;52.516;10.528;2023-08-06T06:12:44;7.18;;;4.95;;
76107;SDS011;64834;52.516;10.528;2023-08-06T06:15:10;7.20;;;5.05;;
76107;SDS011;64834;52.516;10.528;2023-08-06T06:17:35;7.88;;;5.53;;
76107;SDS011;64834;52.516;10.528;2023-08-06T06:20:00;7.85;;;4.75;;
76107;SDS011;64834;52.516;10.528;2023-08-06T06:22:26;6.28;;;4.63;;
76107;SDS011;64834;52.516;10.528;2023-08-06T06:24:51;7.28;;;4.82;;
76107;SDS011;64834;52.516;10.528;2023-08-06T06:27:16;9.07;;;5.90;;
76107;SDS011;64834;52.516;10.528;2023-08-06T06:29:42;11.48;;;5.88;;
76107;SDS011;64834;52.516;10.528;2023-08-06T06:32:07;7.53;;;4.88;;
76107;SDS011;64834;52.516;10.528;2023-08-06T06:34:33;8.27;;;6.07;;
76107;SDS011;64834;52.516;10.528;2023-08-06T06:36:58;7.47;;;5.63;;
76107;SDS011;64834;52.516;10.528;2023-08-06T06:39:23;8.32;;;5.03;;
76107;SDS011;64834;52.516;10.528;2023-08-06T06:41:49;8.15;;;5.10;;
76107;SDS011;64834;52.516;10.528;2023-08-06T06:44:14;8.27;;;5.03;;
76107;SDS011;64834;52.516;10.528;2023-08-06T06:46:40;6.55;;;4.93;;
76107;SDS011;64834;52.516;10.528;2023-08-06T06:49:05;7.45;;;5.50;;
76107;SDS011;64834;52.516;10.528;2023-08-06T06:51:31;6.18;;;4.47;;
76107;SDS011;64834;52.516;10.528;2023-08-06T06:53:57;6.78;;;4.60;;
76107;SDS011;64834;52.516;10.528;2023-08-06T06:56:22;7.70;;;4.22;;
76107;SDS011;64834;52.516;10.528;2023-08-06T06:58:47;8.63;;;4.93;;
76107;SDS011;64834;52.516;10.528;2023-08-06T07:01:13;7.30;;;4.70;;
76107;SDS011;64834;52.516;10.528;2023-08-06T07:03:38;6.93;;;4.78;;
76107;SDS011;64834;52.516;10.528;2023-08-06T07:06:03;6.35;;;4.40;;
76107;SDS011;64834;52.516;10.528;2023-08-06T07:08:30;7.28;;;4.55;;
76107;SDS011;64834;52.516;10.528;2023-08-06T07:11:01;6.40;;;3.75;;
76107;SDS011;64834;52.516;10.528;2023-08-06T07:13:27;6.90;;;3.80;;
76107;SDS011;64834;52.516;10.528;2023-08-06T07:15:54;5.63;;;3.85;;
76107;SDS011;64834;52.516;10.528;2023-08-06T07:18:20;6.70;;;3.95;;
76107;SDS011;64834;52.516;10.528;2023-08-06T07:20:48;5.47;;;3.42;;
76107;SDS011;64834;52.516;10.528;2023-08-06T07:23:14;5.22;;;3.75;;
76107;SDS011;64834;52.516;10.528;2023-08-06T07:25:40;5.13;;;3.67;;
76107;SDS011;64834;52.516;10.528;2023-08-06T07:28:05;4.55;;;3.72;;
76107;SDS011;64834;52.516;10.528;2023-08-06T07:30:30;5.20;;;3.53;;
76107;SDS011;64834;52.516;10.528;2023-08-06T07:32:56;5.85;;;2.95;;
76107;SDS011;64834;52.516;10.528;2023-08-06T07:35:21;4.45;;;3.00;;
76107;SDS011;64834;52.516;10.528;2023-08-06T07:37:46;5.97;;;3.42;;
76107;SDS011;64834;52.516;10.528;2023-08-06T07:40:12;5.78;;;3.30;;
76107;SDS011;64834;52.516;10.528;2023-08-06T07:42:37;5.13;;;3.00;;
76107;SDS011;64834;52.516;10.528;2023-08-06T07:45:02;4.45;;;2.90;;
76107;SDS011;64834;52.516;10.528;2023-08-06T07:47:28;4.78;;;3.47;;
76107;SDS011;64834;52.516;10.528;2023-08-06T07:49:53;3.95;;;2.90;;
76107;SDS011;64834;52.516;10.528;2023-08-06T07:52:19;3.60;;;2.75;;
76107;SDS011;64834;52.516;10.528;2023-08-06T07:54:44;3.45;;;2.47;;
76107;SDS011;64834;52.516;10.528;2023-08-06T07:57:09;3.45;;;2.67;;
76107;SDS011;64834;52.516;10.528;2023-08-06T07:59:35;3.53;;;2.40;;
76107;SDS011;64834;52.516;10.528;2023-08-06T08:02:00;4.95;;;2.45;;
76107;SDS011;64834;52.516;10.528;2023-08-06T08:04:26;3.58;;;2.45;;
76107;SDS011;64834;52.516;10.528;2023-08-06T08:06:51;5.47;;;2.72;;
76107;SDS011;64834;52.516;10.528;2023-08-06T08:09:16;4.07;;;2.47;;
76107;SDS011;64834;52.516;10.528;2023-08-06T08:11:42;3.25;;;2.20;;
76107;SDS011;64834;52.516;10.528;2023-08-06T08:14:07;2.80;;;2.00;;
76107;SDS011;64834;52.516;10.528;2023-08-06T08:16:32;2.58;;;2.03;;
76107;SDS011;64834;52.516;10.528;2023-08-06T08:18:58;3.00;;;2.30;;
76107;SDS011;64834;52.516;10.528;2023-08-06T08:21:24;3.17;;;2.47;;
76107;SDS011;64834;52.516;10.528;2023-08-06T08:23:50;3.00;;;2.38;;
76107;SDS011;64834;52.516;10.528;2023-08-06T08:26:16;2.90;;;2.15;;
76107;SDS011;64834;52.516;10.528;2023-08-06T08:28:41;3.05;;;1.98;;
76107;SDS011;64834;52.516;10.528;2023-08-06T08:31:10;3.35;;;2.40;;
76107;SDS011;64834;52.516;10.528;2023-08-06T08:33:36;2.53;;;2.08;;
76107;SDS011;64834;52.516;10.528;2023-08-06T08:36:02;4.28;;;1.98;;
76107;SDS011;64834;52.516;10.528;2023-08-06T08:38:28;3.95;;;2.22;;
76107;SDS011;64834;52.516;10.528;2023-08-06T08:40:53;2.78;;;2.15;;
76107;SDS011;64834;52.516;10.528;2023-08-06T08:43:23;4.53;;;2.22;;
76107;SDS011;64834;52.516;10.528;2023-08-06T08:45:52;3.65;;;2.17;;
76107;SDS011;64834;52.516;10.528;2023-08-06T08:48:23;3.15;;;2.38;;
76107;SDS011;64834;52.516;10.528;2023-08-06T08:50:49;3.05;;;1.88;;
76107;SDS011;64834;52.516;10.528;2023-08-06T08:53:15;2.83;;;1.95;;
76107;SDS011;64834;52.516;10.528;2023-08-06T08:55:42;3.00;;;2.05;;
76107;SDS011;64834;52.516;10.528;2023-08-06T08:58:09;2.67;;;1.98;;
76107;SDS011;64834;52.516;10.528;2023-08-06T09:00:34;2.72;;;1.63;;
76107;SDS011;64834;52.516;10.528;2023-08-06T09:03:00;2.30;;;1.73;;
76107;SDS011;64834;52.516;10.528;2023-08-06T09:05:30;2.20;;;1.50;;
76107;SDS011;64834;52.516;10.528;2023-08-06T09:07:59;3.78;;;2.00;;
76107;SDS011;64834;52.516;10.528;2023-08-06T09:10:27;3.35;;;1.60;;
76107;SDS011;64834;52.516;10.528;2023-08-06T09:12:53;3.72;;;1.60;;
76107;SDS011;64834;52.516;10.528;2023-08-06T09:15:23;3.92;;;1.77;;
76107;SDS011;64834;52.516;10.528;2023-08-06T09:17:50;2.13;;;1.33;;
76107;SDS011;64834;52.516;10.528;2023-08-06T09:20:15;2.40;;;1.80;;
76107;SDS011;64834;52.516;10.528;2023-08-06T09:22:41;2.38;;;1.67;;
76107;SDS011;64834;52.516;10.528;2023-08-06T09:25:07;2.22;;;1.60;;
76107;SDS011;64834;52.516;10.528;2023-08-06T09:27:36;2.20;;;1.60;;
76107;SDS011;64834;52.516;10.528;2023-08-06T09:30:02;2.45;;;2.05;;
76107;SDS011;64834;52.516;10.528;2023-08-06T09:32:45;3.17;;;1.63;;
76107;SDS011;64834;52.516;10.528;2023-08-06T09:35:15;2.38;;;1.55;;
76107;SDS011;64834;52.516;10.528;2023-08-06T09:37:44;2.95;;;1.40;;
76107;SDS011;64834;52.516;10.528;2023-08-06T09:40:28;2.50;;;1.67;;
76107;SDS011;64834;52.516;10.528;2023-08-06T09:42:56;2.10;;;1.50;;
76107;SDS011;64834;52.516;10.528;2023-08-06T09:45:22;3.30;;;1.77;;
76107;SDS011;64834;52.516;10.528;2023-08-06T09:47:48;2.03;;;1.30;;
76107;SDS011;64834;52.516;10.528;2023-08-06T09:50:17;1.90;;;1.10;;
76107;SDS011;64834;52.516;10.528;2023-08-06T09:52:43;2.70;;;1.30;;
76107;SDS011;64834;52.516;10.528;2023-08-06T09:55:10;3.75;;;1.33;;
76107;SDS011;64834;52.516;10.528;2023-08-06T09:57:37;2.28;;;1.33;;
76107;SDS011;64834;52.516;10.528;2023-08-06T10:00:03;2.42;;;1.40;;
76107;SDS011;64834;52.516;10.528;2023-08-06T10:02:29;1.83;;;1.33;;
76107;SDS011;64834;52.516;10.528;2023-08-06T10:04:56;2.63;;;1.50;;
76107;SDS011;64834;52.516;10.528;2023-08-06T10:07:22;2.13;;;1.63;;
76107;SDS011;64834;52.516;10.528;2023-08-06T10:09:49;2.45;;;1.13;;
76107;SDS011;64834;52.516;10.528;2023-08-06T10:12:14;2.13;;;1.40;;
76107;SDS011;64834;52.516;10.528;2023-08-06T10:14:43;1.70;;;1.05;;
76107;SDS011;64834;52.516;10.528;2023-08-06T10:17:09;2.25;;;1.30;;
76107;SDS011;64834;52.516;10.528;2023-08-06T10:19:35;2.47;;;1.10;;
76107;SDS011;64834;52.516;10.528;2023-08-06T10:22:08;1.90;;;1.30;;
76107;SDS011;64834;52.516;10.528;2023-08-06T10:24:47;1.98;;;1.30;;
76107;SDS011;64834;52.516;10.528;2023-08-06T10:27:13;1.92;;;1.35;;
76107;SDS011;64834;52.516;10.528;2023-08-06T10:29:39;2.00;;;1.55;;
76107;SDS011;64834;52.516;10.528;2023-08-06T10:32:04;1.80;;;1.00;;
76107;SDS011;64834;52.516;10.528;2023-08-06T10:37:34;3.30;;;1.10;;
76107;SDS011;64834;52.516;10.528;2023-08-06T10:40:01;1.73;;;1.10;;
76107;SDS011;64834;52.516;10.528;2023-08-06T10:42:27;2.10;;;1.13;;
76107;SDS011;64834;52.516;10.528;2023-08-06T10:47:42;1.52;;;0.90;;
76107;SDS011;64834;52.516;10.528;2023-08-06T10:50:10;1.50;;;0.85;;
76107;SDS011;64834;52.516;10.528;2023-08-06T10:52:37;1.05;;;0.75;;
76107;SDS011;64834;52.516;10.528;2023-08-06T10:55:03;1.80;;;0.90;;
76107;SDS011;64834;52.516;10.528;2023-08-06T10:57:28;1.70;;;0.93;;
76107;SDS011;64834;52.516;10.528;2023-08-06T10:59:53;1.55;;;0.98;;
76107;SDS011;64834;52.516;10.528;2023-08-06T11:02:19;1.40;;;0.90;;
76107;SDS011;64834;52.516;10.528;2023-08-06T11:04:44;1.75;;;0.95;;
76107;SDS011;64834;52.516;10.528;2023-08-06T11:07:10;3.72;;;1.02;;
76107;SDS011;64834;52.516;10.528;2023-08-06T11:09:35;1.42;;;0.82;;
76107;SDS011;64834;52.516;10.528;2023-08-06T11:12:00;1.30;;;0.63;;
76107;SDS011;64834;52.516;10.528;2023-08-06T11:14:26;2.00;;;0.65;;
76107;SDS011;64834;52.516;10.528;2023-08-06T11:16:51;1.83;;;0.90;;
76107;SDS011;64834;52.516;10.528;2023-08-06T11:19:16;1.13;;;0.70;;
76107;SDS011;64834;52.516;10.528;2023-08-06T11:21:43;1.70;;;0.70;;
76107;SDS011;64834;52.516;10.528;2023-08-06T11:24:10;1.42;;;0.90;;
76107;SDS011;64834;52.516;10.528;2023-08-06T11:26:36;1.08;;;0.55;;
76107;SDS011;64834;52.516;10.528;2023-08-06T11:29:02;0.98;;;0.50;;
76107;SDS011;64834;52.516;10.528;2023-08-06T11:31:28;1.40;;;0.95;;
76107;SDS011;64834;52.516;10.528;2023-08-06T11:33:53;1.63;;;0.80;;
76107;SDS011;64834;52.516;10.528;2023-08-06T11:36:32;1.30;;;0.60;;
76107;SDS011;64834;52.516;10.528;2023-08-06T11:39:02;1.05;;;0.60;;
76107;SDS011;64834;52.516;10.528;2023-08-06T11:41:30;1.40;;;0.70;;
76107;SDS011;64834;52.516;10.528;2023-08-06T11:43:56;1.20;;;0.63;;
76107;SDS011;64834;52.516;10.528;2023-08-06T11:46:21;1.30;;;0.70;;
76107;SDS011;64834;52.516;10.528;2023-08-06T11:48:57;1.10;;;0.60;;
76107;SDS011;64834;52.516;10.528;2023-08-06T11:51:26;1.13;;;0.77;;
76107;SDS011;64834;52.516;10.528;2023-08-06T11:53:55;1.40;;;0.80;;
76107;SDS011;64834;52.516;10.528;2023-08-06T11:56:21;1.60;;;0.90;;
76107;SDS011;64834;52.516;10.528;2023-08-06T11:58:47;1.60;;;1.00;;
76107;SDS011;64834;52.516;10.528;2023-08-06T12:01:13;1.83;;;1.40;;
76107;SDS011;64834;52.516;10.528;2023-08-06T12:03:39;2.00;;;1.00;;
76107;SDS011;64834;52.516;10.528;2023-08-06T12:06:05;1.75;;;1.20;;
76107;SDS011;64834;52.516;10.528;2023-08-06T12:08:30;1.70;;;1.20;;
76107;SDS011;64834;52.516;10.528;2023-08-06T12:10:56;1.63;;;1.00;;
76107;SDS011;64834;52.516;10.528;2023-08-06T12:13:22;1.75;;;1.20;;
76107;SDS011;64834;52.516;10.528;2023-08-06T12:15:47;1.90;;;1.20;;
76107;SDS011;64834;52.516;10.528;2023-08-06T12:18:13;1.90;;;0.90;;
76107;SDS011;64834;52.516;10.528;2023-08-06T12:20:38;1.42;;;0.80;;
76107;SDS011;64834;52.516;10.528;2023-08-06T12:23:03;1.40;;;1.00;;
76107;SDS011;64834;52.516;10.528;2023-08-06T12:25:29;2.70;;;1.15;;
76107;SDS011;64834;52.516;10.528;2023-08-06T12:27:54;2.10;;;1.27;;
76107;SDS011;64834;52.516;10.528;2023-08-06T12:30:20;2.80;;;1.23;;
76107;SDS011;64834;52.516;10.528;2023-08-06T12:32:45;1.70;;;1.10;;
76107;SDS011;64834;52.516;10.528;2023-08-06T12:35:10;3.03;;;1.15;;
76107;SDS011;64834;52.516;10.528;2023-08-06T12:37:36;2.05;;;1.20;;
76107;SDS011;64834;52.516;10.528;2023-08-06T12:40:03;1.52;;;1.20;;
76107;SDS011;64834;52.516;10.528;2023-08-06T12:42:29;2.10;;;1.10;;
76107;SDS011;64834;52.516;10.528;2023-08-06T12:44:54;1.42;;;1.05;;
76107;SDS011;64834;52.516;10.528;2023-08-06T12:47:19;2.00;;;1.23;;
76107;SDS011;64834;52.516;10.528;2023-08-06T12:49:45;2.70;;;1.30;;
76107;SDS011;64834;52.516;10.528;2023-08-06T12:52:10;1.50;;;1.10;;
76107;SDS011;64834;52.516;10.528;2023-08-06T12:54:37;2.00;;;1.20;;
76107;SDS011;64834;52.516;10.528;2023-08-06T12:57:03;2.30;;;1.33;;
76107;SDS011;64834;52.516;10.528;2023-08-06T12:59:29;2.00;;;1.40;;
76107;SDS011;64834;52.516;10.528;2023-08-06T13:01:54;2.13;;;1.05;;
76107;SDS011;64834;52.516;10.528;2023-08-06T13:04:19;1.65;;;1.38;;
76107;SDS011;64834;52.516;10.528;2023-08-06T13:06:45;3.15;;;1.75;;
76107;SDS011;64834;52.516;10.528;2023-08-06T13:09:10;3.03;;;1.38;;
76107;SDS011;64834;52.516;10.528;2023-08-06T13:11:36;2.25;;;1.60;;
76107;SDS011;64834;52.516;10.528;2023-08-06T13:14:07;2.08;;;1.48;;
76107;SDS011;64834;52.516;10.528;2023-08-06T13:16:36;2.20;;;1.38;;
76107;SDS011;64834;52.516;10.528;2023-08-06T13:19:03;2.55;;;1.20;;
76107;SDS011;64834;52.516;10.528;2023-08-06T13:24:15;2.05;;;1.02;;
76107;SDS011;64834;52.516;10.528;2023-08-06T13:26:40;2.10;;;1.30;;
76107;SDS011;64834;52.516;10.528;2023-08-06T13:29:05;1.85;;;1.50;;
76107;SDS011;64834;52.516;10.528;2023-08-06T13:31:32;2.17;;;1.25;;
76107;SDS011;64834;52.516;10.528;2023-08-06T13:33:57;2.00;;;1.50;;
76107;SDS011;64834;52.516;10.528;2023-08-06T13:36:23;1.77;;;1.30;;
76107;SDS011;64834;52.516;10.528;2023-08-06T13:38:49;2.40;;;1.70;;
76107;SDS011;64834;52.516;10.528;2023-08-06T13:41:15;3.17;;;1.50;;
76107;SDS011;64834;52.516;10.528;2023-08-06T13:43:40;2.00;;;1.30;;
76107;SDS011;64834;52.516;10.528;2023-08-06T13:46:06;3.47;;;1.52;;
76107;SDS011;64834;52.516;10.528;2023-08-06T13:48:31;3.47;;;1.60;;
76107;SDS011;64834;52.516;10.528;2023-08-06T13:50:57;2.40;;;1.63;;
76107;SDS011;64834;52.516;10.528;2023-08-06T13:53:22;2.10;;;1.52;;
76107;SDS011;64834;52.516;10.528;2023-08-06T13:55:47;3.25;;;1.75;;
76107;SDS011;64834;52.516;10.528;2023-08-06T13:58:13;2.58;;;1.40;;
76107;SDS011;64834;52.516;10.528;2023-08-06T14:00:38;2.45;;;1.73;;
76107;SDS011;64834;52.516;10.528;2023-08-06T14:03:03;2.25;;;1.40;;
76107;SDS011;64834;52.516;10.528;2023-08-06T14:05:29;4.18;;;1.67;;
76107;SDS011;64834;52.516;10.528;2023-08-06T14:07:54;2.50;;;1.60;;
76107;SDS011;64834;52.516;10.528;2023-08-06T14:10:19;3.03;;;1.63;;
76107;SDS011;64834;52.516;10.528;2023-08-06T14:12:45;2.10;;;1.25;;
76107;SDS011;64834;52.516;10.528;2023-08-06T14:15:10;2.25;;;1.52;;
76107;SDS011;64834;52.516;10.528;2023-08-06T14:17:36;2.17;;;1.50;;
76107;SDS011;64834;52.516;10.528;2023-08-06T14:20:01;6.10;;;1.85;;
76107;SDS011;64834;52.516;10.528;2023-08-06T14:22:29;4.18;;;1.95;;
76107;SDS011;64834;52.516;10.528;2023-08-06T14:24:56;2.85;;;1.60;;
76107;SDS011;64834;52.516;10.528;2023-08-06T14:27:22;2.47;;;1.70;;
76107;SDS011;64834;52.516;10.528;2023-08-06T14:29:47;2.42;;;1.63;;
76107;SDS011;64834;52.516;10.528;2023-08-06T14:32:12;2.30;;;1.65;;
76107;SDS011;64834;52.516;10.528;2023-08-06T14:34:38;3.08;;;1.70;;
76107;SDS011;64834;52.516;10.528;2023-08-06T14:37:03;3.80;;;1.67;;
76107;SDS011;64834;52.516;10.528;2023-08-06T14:39:29;2.33;;;1.85;;
76107;SDS011;64834;52.516;10.528;2023-08-06T14:41:54;1.95;;;1.50;;